Time;durP1;ratioP1;P1;durP2;ratioP2;P2;SDS_P1;SDS_P2;PMS_P1;PMS_P2;Temp;Humidity;BMP_temperature;BMP_pressure;BME280_temperature;BME280_humidity;BME280_pressure;Samples;Min_cycle;Max_cycle;Signal;HPM_P1;HPM_P2
2024/01/20 00:01:20;;;;;;;10.00;9.60;;;;;;;2.48;83.06;92507.75;5065258;28;20214;-77
2024/01/20 00:03:46;;;;;;;10.93;10.53;;;;;;;2.06;83.76;92511.63;5064035;28;20204;-76
2024/01/20 00:06:11;;;;;;;9.47;9.17;;;;;;;1.92;84.54;92511.09;5066301;28;20192;-75
2024/01/20 00:08:37;;;;;;;10.23;9.83;;;;;;;2.02;85.81;92513.09;5069353;28;20192;-77
2024/01/20 00:11:02;;;;;;;9.87;9.37;;;;;;;1.91;85.83;92508.75;5071037;28;20184;-73
2024/01/20 00:13:28;;;;;;;9.97;9.57;;;;;;;1.85;85.98;92514.81;5068671;28;20239;-76
2024/01/20 00:15:53;;;;;;;10.33;9.93;;;;;;;1.71;85.60;92516.88;5062362;28;20190;-77
2024/01/20 00:18:18;;;;;;;10.43;9.87;;;;;;;1.58;85.35;92501.69;5050519;28;20283;-77
2024/01/20 00:20:45;;;;;;;9.47;9.07;;;;;;;1.90;86.08;92532.94;5046447;28;20297;-77
2024/01/20 00:23:11;;;;;;;10.17;9.67;;;;;;;1.81;84.52;92532.50;5066690;28;20225;-76
2024/01/20 00:25:36;;;;;;;10.33;9.93;;;;;;;1.82;84.04;92552.09;5053340;28;20192;-76
2024/01/20 00:28:03;;;;;;;10.43;9.83;;;;;;;1.78;84.50;92553.53;5070846;28;20226;-76
2024/01/20 00:30:29;;;;;;;11.20;10.70;;;;;;;1.63;84.37;92537.81;5069885;28;20272;-75
2024/01/20 00:32:54;;;;;;;11.57;10.77;;;;;;;1.63;84.63;92574.59;5059751;28;20229;-76
2024/01/20 00:35:20;;;;;;;10.40;10.00;;;;;;;1.60;84.31;92559.59;5069381;28;20232;-77
2024/01/20 00:37:45;;;;;;;10.40;10.00;;;;;;;1.75;84.39;92569.44;5045253;28;20240;-76
2024/01/20 00:40:11;;;;;;;9.63;9.33;;;;;;;1.57;84.57;92551.59;5046932;28;20189;-77
2024/01/20 00:42:36;;;;;;;10.17;9.77;;;;;;;1.26;84.59;92550.13;5053480;28;20256;-76
2024/01/20 00:45:03;;;;;;;10.97;10.57;;;;;;;1.32;84.93;92549.22;5059719;28;20186;-76
2024/01/20 00:47:29;;;;;;;11.17;10.63;;;;;;;1.74;84.09;92561.94;5059364;28;20260;-76
2024/01/20 00:49:54;;;;;;;10.33;9.93;;;;;;;1.71;83.13;92583.00;5050058;28;20174;-76
2024/01/20 00:52:20;;;;;;;9.30;8.90;;;;;;;1.71;82.91;92573.50;5055784;28;20240;-76
2024/01/20 00:54:45;;;;;;;10.50;10.10;;;;;;;1.60;83.48;92569.13;5052630;28;20201;-76
2024/01/20 00:57:11;;;;;;;10.97;10.47;;;;;;;1.75;84.67;92564.28;5069837;28;20220;-77
2024/01/20 00:59:36;;;;;;;10.13;9.73;;;;;;;1.59;84.16;92573.50;5070102;28;20189;-76
2024/01/20 01:02:01;;;;;;;10.87;10.47;;;;;;;1.42;83.38;92582.88;5063382;28;20273;-76
2024/01/20 01:04:27;;;;;;;11.07;10.57;;;;;;;1.46;83.44;92602.00;5067723;28;20204;-74
2024/01/20 01:06:52;;;;;;;10.63;10.17;;;;;;;1.41;83.41;92604.47;5057963;28;20216;-74
2024/01/20 01:09:17;;;;;;;10.83;10.43;;;;;;;1.00;84.64;92537.72;5070144;28;20196;-75
2024/01/20 01:11:43;;;;;;;9.40;9.03;;;;;;;1.46;84.87;92590.94;5057036;28;20285;-74
2024/01/20 01:14:08;;;;;;;10.67;10.27;;;;;;;1.19;83.62;92559.75;5068391;28;20185;-74
2024/01/20 01:16:33;;;;;;;9.80;9.40;;;;;;;1.17;83.92;92556.63;5069670;28;20225;-74
2024/01/20 01:18:59;;;;;;;10.47;9.97;;;;;;;1.50;83.58;92592.06;5054583;28;20190;-75
2024/01/20 01:21:24;;;;;;;10.87;10.37;;;;;;;1.16;84.28;92574.81;5068811;28;20975;-75
2024/01/20 01:23:50;;;;;;;11.73;11.20;;;;;;;1.42;84.21;92595.75;5069659;28;20235;-75
2024/01/20 01:26:17;;;;;;;10.90;10.50;;;;;;;1.14;84.96;92595.63;5069023;28;21004;-75
2024/01/20 01:28:42;;;;;;;10.80;10.40;;;;;;;1.25;85.82;92597.41;5070406;28;20192;-74
2024/01/20 01:31:07;;;;;;;10.43;10.03;;;;;;;1.29;85.43;92615.75;5069322;28;20260;-74
2024/01/20 01:33:33;;;;;;;10.60;10.10;;;;;;;1.27;84.48;92617.75;5069606;28;20240;-74
2024/01/20 01:35:58;;;;;;;11.27;10.77;;;;;;;1.13;86.78;92609.47;5069433;28;20181;-74
2024/01/20 01:38:23;;;;;;;11.00;10.50;;;;;;;0.95;86.97;92616.50;5069349;28;20225;-73
2024/01/20 01:40:49;;;;;;;9.97;9.57;;;;;;;0.93;87.65;92578.16;5068844;28;20209;-74
2024/01/20 01:43:14;;;;;;;10.50;10.03;;;;;;;0.80;89.70;92598.91;5069351;28;20249;-77
2024/01/20 01:45:40;;;;;;;10.43;10.03;;;;;;;0.74;91.81;92565.59;5039008;28;20178;-77
2024/01/20 01:48:05;;;;;;;8.97;8.57;;;;;;;0.73;92.70;92575.09;5067771;28;20323;-77
2024/01/20 01:50:31;;;;;;;10.70;10.30;;;;;;;0.74;94.34;92591.28;5064473;28;20198;-76
2024/01/20 01:52:58;;;;;;;10.17;9.67;;;;;;;0.72;95.65;92586.38;5069434;28;20814;-76
2024/01/20 01:55:24;;;;;;;9.97;9.57;;;;;;;0.63;96.01;92592.84;5062833;28;20277;-77
2024/01/20 01:57:53;;;;;;;10.40;10.00;;;;;;;0.50;97.16;92605.84;5066792;28;20219;-77
2024/01/20 02:00:18;;;;;;;10.77;10.27;;;;;;;0.44;97.47;92593.88;5052460;28;20251;-76
2024/01/20 02:02:44;;;;;;;11.03;10.53;;;;;;;0.34;97.38;92610.81;5050035;28;20218;-75
2024/01/20 02:05:10;;;;;;;10.80;10.23;;;;;;;0.20;97.95;92596.56;5067503;28;20253;-77
2024/01/20 02:07:37;;;;;;;10.23;9.83;;;;;;;0.37;98.05;92621.44;5068981;28;20226;-76
2024/01/20 02:10:05;;;;;;;11.00;10.60;;;;;;;0.22;96.78;92597.91;5069169;28;20295;-77
2024/01/20 02:12:31;;;;;;;10.73;10.30;;;;;;;0.20;97.62;92599.94;5068928;28;20229;-76
2024/01/20 02:14:58;;;;;;;11.43;10.93;;;;;;;0.08;97.60;92591.38;5049092;28;20193;-76
2024/01/20 02:17:23;;;;;;;11.43;10.93;;;;;;;0.29;96.87;92618.38;5068807;28;20217;-76
2024/01/20 02:19:49;;;;;;;9.50;9.10;;;;;;;0.37;97.26;92606.03;5067675;28;20186;-76
2024/01/20 02:22:15;;;;;;;9.80;9.37;;;;;;;0.21;98.07;92604.06;5049721;28;20233;-77
2024/01/20 02:24:46;;;;;;;10.87;10.40;;;;;;;0.36;97.38;92601.88;5045656;28;20194;-77
2024/01/20 02:27:12;;;;;;;9.67;9.37;;;;;;;0.11;97.31;92610.69;5042388;28;20233;-76
2024/01/20 02:29:39;;;;;;;10.73;10.13;;;;;;;0.02;97.11;92591.47;5048832;28;20182;-77
2024/01/20 02:32:04;;;;;;;10.23;9.83;;;;;;;-0.08;98.13;92597.09;5056049;28;20238;-76
2024/01/20 02:34:30;;;;;;;11.10;10.70;;;;;;;0.12;99.38;92612.25;5053258;28;20189;-77
2024/01/20 02:36:55;;;;;;;10.27;9.77;;;;;;;0.09;100.00;92628.88;5034769;28;20240;-76
2024/01/20 02:39:21;;;;;;;12.93;12.17;;;;;;;-0.17;100.00;92626.59;5049226;28;20187;-77
2024/01/20 02:41:47;;;;;;;12.53;11.83;;;;;;;-0.19;100.00;92631.16;5053690;28;20251;-77
2024/01/20 02:44:12;;;;;;;11.57;10.87;;;;;;;-0.11;100.00;92633.44;5067585;28;20173;-77
2024/01/20 02:46:38;;;;;;;11.17;10.57;;;;;;;-0.13;100.00;92631.09;5051422;28;20989;-76
2024/01/20 02:49:03;;;;;;;11.00;10.43;;;;;;;-0.08;100.00;92658.69;5070249;28;20220;-76
2024/01/20 02:51:29;;;;;;;11.03;10.53;;;;;;;0.00;98.71;92648.13;5047191;28;20197;-77
2024/01/20 02:53:55;;;;;;;10.97;10.47;;;;;;;0.07;96.66;92668.56;5066675;28;20408;-76
2024/01/20 02:56:22;;;;;;;9.57;9.17;;;;;;;-0.01;95.47;92664.50;5066233;28;20244;-77
2024/01/20 02:58:48;;;;;;;10.57;10.07;;;;;;;-0.37;96.07;92636.25;5052301;28;20281;-77
2024/01/20 03:01:14;;;;;;;10.77;10.27;;;;;;;-0.04;96.78;92663.16;5048861;28;20198;-76
2024/01/20 03:03:39;;;;;;;10.73;10.33;;;;;;;-0.25;96.95;92653.31;5041738;28;20183;-75
2024/01/20 03:06:05;;;;;;;11.73;11.33;;;;;;;-0.17;98.05;92670.97;5041657;28;20224;-77
2024/01/20 03:08:30;;;;;;;10.10;9.70;;;;;;;0.03;97.48;92675.94;5046288;28;20214;-77
2024/01/20 03:10:55;;;;;;;10.77;10.27;;;;;;;0.22;97.50;92674.91;5051102;28;20170;-77
2024/01/20 03:13:21;;;;;;;11.80;11.30;;;;;;;0.21;95.29;92672.56;5051455;28;20278;-77
2024/01/20 03:15:46;;;;;;;10.83;10.40;;;;;;;0.21;96.60;92673.34;5045488;28;20186;-77
2024/01/20 03:18:11;;;;;;;10.87;10.40;;;;;;;0.09;98.82;92689.69;5046208;28;20225;-77
2024/01/20 03:20:37;;;;;;;10.83;10.33;;;;;;;-0.12;100.00;92670.34;5044984;28;20234;-76
2024/01/20 03:23:02;;;;;;;10.57;10.10;;;;;;;0.09;96.50;92697.38;5049957;28;20266;-76
2024/01/20 03:25:28;;;;;;;11.17;10.73;;;;;;;-0.09;98.95;92706.63;5051888;28;20216;-77
2024/01/20 03:27:53;;;;;;;10.57;10.17;;;;;;;-0.20;100.00;92703.97;5051274;28;20731;-77
2024/01/20 03:30:19;;;;;;;10.63;10.20;;;;;;;-0.32;100.00;92705.66;5052078;28;20190;-76
2024/01/20 03:32:44;;;;;;;11.17;10.67;;;;;;;-0.41;100.00;92715.41;5061388;28;20292;-76
2024/01/20 03:35:10;;;;;;;10.97;10.47;;;;;;;-0.36;100.00;92732.72;5067354;28;20178;-77
2024/01/20 03:37:35;;;;;;;10.87;10.47;;;;;;;-0.38;100.00;92721.88;5067483;28;20299;-77
2024/01/20 03:40:01;;;;;;;11.00;10.43;;;;;;;-0.73;100.00;92710.53;5067138;28;20227;-76
2024/01/20 03:42:28;;;;;;;10.33;9.83;;;;;;;-0.58;100.00;92719.50;5066406;28;20244;-76
2024/01/20 03:44:54;;;;;;;9.97;9.57;;;;;;;-0.43;100.00;92726.84;5065978;28;20173;-76
2024/01/20 03:47:19;;;;;;;10.87;10.47;;;;;;;-0.63;100.00;92715.97;5065695;28;20271;-76
2024/01/20 03:49:44;;;;;;;11.87;11.33;;;;;;;-0.74;100.00;92716.63;5063357;28;20196;-78
2024/01/20 03:52:10;;;;;;;11.50;11.07;;;;;;;-0.70;100.00;92730.63;5065926;28;20229;-76
2024/01/20 03:54:35;;;;;;;11.67;11.17;;;;;;;-0.69;100.00;92737.31;5069795;28;20189;-77
2024/01/20 03:57:00;;;;;;;10.10;9.70;;;;;;;-0.88;100.00;92733.88;5069035;28;20225;-76
2024/01/20 03:59:26;;;;;;;11.77;11.27;;;;;;;-0.89;100.00;92734.88;5071721;28;20190;-77
2024/01/20 04:01:51;;;;;;;9.97;9.57;;;;;;;-0.85;100.00;92737.78;5054505;28;20237;-76
2024/01/20 04:04:16;;;;;;;10.50;10.07;;;;;;;-0.87;100.00;92750.81;5071094;28;20233;-77
2024/01/20 04:06:42;;;;;;;10.63;10.23;;;;;;;-1.03;100.00;92722.34;5036432;28;20252;-76
2024/01/20 04:09:07;;;;;;;11.00;10.43;;;;;;;-1.03;100.00;92747.97;5056614;28;20280;-77
2024/01/20 04:11:32;;;;;;;11.90;11.33;;;;;;;-0.79;100.00;92762.59;5064345;28;20231;-77
2024/01/20 04:13:58;;;;;;;11.10;10.70;;;;;;;-0.82;100.00;92771.50;5058693;28;20879;-77
2024/01/20 04:16:23;;;;;;;10.43;10.03;;;;;;;-0.75;100.00;92779.94;5047477;28;20227;-77
2024/01/20 04:18:49;;;;;;;10.97;10.47;;;;;;;-1.32;100.00;92697.31;5067867;28;20186;-77
2024/01/20 04:21:14;;;;;;;9.93;9.63;;;;;;;-0.93;100.00;92776.47;5055103;28;20248;-76
2024/01/20 04:23:39;;;;;;;11.70;11.30;;;;;;;-1.07;100.00;92790.31;5041513;28;20195;-76
2024/01/20 04:26:04;;;;;;;10.67;10.17;;;;;;;-0.96;100.00;92776.88;5035066;28;20217;-77
2024/01/20 04:28:30;;;;;;;10.20;9.80;;;;;;;-1.01;100.00;92779.28;5060057;28;20218;-77
2024/01/20 04:30:55;;;;;;;9.20;8.80;;;;;;;-1.01;100.00;92795.44;5067673;28;20219;-76
2024/01/20 04:33:20;;;;;;;11.17;10.77;;;;;;;-0.88;100.00;92807.38;5052117;28;20240;-76
2024/01/20 04:35:46;;;;;;;10.87;10.47;;;;;;;-0.90;100.00;92791.47;5038222;28;20198;-76
2024/01/20 04:38:11;;;;;;;10.10;9.70;;;;;;;-0.75;99.71;92815.03;5049058;28;20252;-77
2024/01/20 04:40:36;;;;;;;10.43;10.03;;;;;;;-0.69;97.79;92806.50;5068074;28;20189;-77
2024/01/20 04:43:02;;;;;;;10.43;9.93;;;;;;;-0.76;97.92;92809.09;5049959;28;20791;-76
2024/01/20 04:45:28;;;;;;;10.17;9.67;;;;;;;-0.49;98.91;92820.00;5046176;28;20244;-76
2024/01/20 04:47:53;;;;;;;10.83;10.33;;;;;;;-0.91;98.21;92802.69;5055709;28;20214;-77
2024/01/20 04:50:18;;;;;;;10.43;9.97;;;;;;;-0.92;97.86;92808.81;5050124;28;20193;-76
2024/01/20 04:52:44;;;;;;;10.07;9.57;;;;;;;-0.80;98.09;92812.28;5062379;28;20229;-76
2024/01/20 04:55:09;;;;;;;11.23;10.73;;;;;;;-0.71;96.24;92819.53;5069883;28;20245;-76
2024/01/20 04:57:35;;;;;;;10.87;10.37;;;;;;;-0.59;97.24;92809.41;5069791;28;20231;-76
2024/01/20 05:00:00;;;;;;;11.10;10.50;;;;;;;-0.62;97.32;92831.09;5038576;28;20249;-76
2024/01/20 05:02:26;;;;;;;11.50;11.00;;;;;;;-0.77;97.39;92819.56;5050285;28;20236;-76
2024/01/20 05:04:51;;;;;;;9.47;8.93;;;;;;;-0.92;98.80;92824.19;5059882;28;20194;-77
2024/01/20 05:07:17;;;;;;;9.30;9.00;;;;;;;-0.85;99.67;92828.28;5061085;28;20209;-76
2024/01/20 05:09:42;;;;;;;10.50;10.00;;;;;;;-0.85;100.00;92827.47;5051902;28;20181;-76
2024/01/20 05:12:07;;;;;;;10.67;10.27;;;;;;;-0.73;99.80;92831.00;5055992;28;20221;-77
2024/01/20 05:14:33;;;;;;;11.10;10.70;;;;;;;-0.97;99.36;92834.25;5060687;28;20994;-76
2024/01/20 05:16:58;;;;;;;11.27;10.80;;;;;;;-0.97;100.00;92841.94;5049635;28;20252;-76
2024/01/20 05:19:23;;;;;;;11.73;11.17;;;;;;;-1.09;99.70;92835.88;5063618;28;20189;-76
2024/01/20 05:21:48;;;;;;;10.93;10.40;;;;;;;-1.07;99.38;92833.88;5068950;28;20224;-76
2024/01/20 05:24:14;;;;;;;11.13;10.63;;;;;;;-1.25;100.00;92839.66;5067409;28;20205;-73
2024/01/20 05:26:39;;;;;;;10.10;9.70;;;;;;;-1.23;100.00;92845.34;5064950;28;20224;-78
2024/01/20 05:29:05;;;;;;;11.70;10.87;;;;;;;-1.18;100.00;92842.97;5069558;28;20189;-77
2024/01/20 05:31:31;;;;;;;11.27;10.77;;;;;;;-1.16;100.00;92853.03;5069076;28;20239;-77
2024/01/20 05:33:59;;;;;;;11.63;11.13;;;;;;;-1.03;100.00;92827.38;5068991;28;20174;-77
2024/01/20 05:36:25;;;;;;;11.90;11.33;;;;;;;-1.07;100.00;92841.56;5061189;28;20178;-77
2024/01/20 05:38:50;;;;;;;10.70;10.20;;;;;;;-1.19;100.00;92823.50;5069230;28;20177;-77
2024/01/20 05:41:16;;;;;;;12.27;11.67;;;;;;;-0.99;100.00;92833.66;5060882;28;20203;-76
2024/01/20 05:43:41;;;;;;;11.13;10.67;;;;;;;-0.99;100.00;92841.34;5068504;28;20246;-77
2024/01/20 05:46:07;;;;;;;10.60;10.13;;;;;;;-0.80;100.00;92848.94;5056901;28;20809;-77
2024/01/20 05:48:33;;;;;;;11.50;10.90;;;;;;;-0.99;100.00;92843.91;5067647;28;20217;-77
2024/01/20 05:50:59;;;;;;;11.67;11.07;;;;;;;-1.08;100.00;92825.41;5066898;28;20229;-77
2024/01/20 05:53:24;;;;;;;11.83;11.13;;;;;;;-1.05;100.00;92845.50;5063717;28;20230;-77
2024/01/20 05:55:49;;;;;;;11.77;10.97;;;;;;;-1.08;100.00;92855.38;5064520;28;20253;-77
2024/01/20 05:58:15;;;;;;;10.17;9.67;;;;;;;-1.17;100.00;92852.25;5055358;28;20225;-77
2024/01/20 06:00:40;;;;;;;9.83;9.43;;;;;;;-1.36;100.00;92832.59;5058988;28;20196;-77
2024/01/20 06:03:06;;;;;;;12.00;11.30;;;;;;;-1.42;100.00;92847.97;5052432;28;20225;-79
2024/01/20 06:05:31;;;;;;;12.40;11.77;;;;;;;-1.40;100.00;92856.25;5073090;28;20196;-76
2024/01/20 06:07:57;;;;;;;12.07;11.30;;;;;;;-1.36;100.00;92847.97;5069354;28;20229;-76
2024/01/20 06:10:22;;;;;;;10.13;9.73;;;;;;;-1.16;100.00;92865.81;5056823;28;20304;-76
2024/01/20 06:12:48;;;;;;;12.10;11.60;;;;;;;-1.35;100.00;92854.66;5063589;28;20325;-76
2024/01/20 06:15:13;;;;;;;11.13;10.63;;;;;;;-1.27;100.00;92859.56;5071788;28;20217;-74
2024/01/20 06:17:38;;;;;;;10.20;9.70;;;;;;;-1.24;100.00;92876.28;5041809;28;20220;-74
2024/01/20 06:20:05;;;;;;;11.07;10.57;;;;;;;-1.17;100.00;92874.50;5066474;28;20185;-75
2024/01/20 06:22:31;;;;;;;10.80;10.30;;;;;;;-1.48;100.00;92864.16;5053319;28;20228;-76
2024/01/20 06:24:57;;;;;;;9.83;9.30;;;;;;;-1.29;100.00;92883.81;5060843;28;20194;-74
2024/01/20 06:27:22;;;;;;;11.13;10.63;;;;;;;-1.34;100.00;92881.06;5063884;28;20913;-75
2024/01/20 06:29:48;;;;;;;10.87;10.37;;;;;;;-1.47;100.00;92892.09;5063043;28;20201;-76
2024/01/20 06:32:13;;;;;;;10.70;10.20;;;;;;;-1.41;100.00;92911.78;5068939;28;20395;-75
2024/01/20 06:34:39;;;;;;;10.47;10.07;;;;;;;-1.47;100.00;92897.22;5056616;28;20194;-78
2024/01/20 06:37:05;;;;;;;11.30;10.80;;;;;;;-1.51;100.00;92906.28;5070139;28;20231;-78
2024/01/20 06:39:30;;;;;;;11.37;10.80;;;;;;;-1.43;100.00;92907.84;5052733;28;20198;-76
2024/01/20 06:41:56;;;;;;;11.73;11.17;;;;;;;-1.49;100.00;92903.53;5066264;28;20244;-74
2024/01/20 06:44:22;;;;;;;11.10;10.60;;;;;;;-1.54;100.00;92893.09;5065037;28;20243;-75
2024/01/20 06:46:48;;;;;;;11.90;10.90;;;;;;;-1.60;100.00;92899.03;5067194;28;20251;-75
2024/01/20 06:49:14;;;;;;;11.53;10.93;;;;;;;-1.63;100.00;92917.34;5062825;28;20254;-76
2024/01/20 06:51:42;;;;;;;11.10;10.50;;;;;;;-1.67;100.00;92902.34;5068450;28;20225;-74
2024/01/20 06:54:07;;;;;;;11.40;10.87;;;;;;;-1.58;100.00;92922.63;5071526;28;20177;-76
2024/01/20 06:56:33;;;;;;;11.20;10.60;;;;;;;-1.43;100.00;92928.34;5069035;28;20249;-80
2024/01/20 06:58:59;;;;;;;11.70;10.93;;;;;;;-1.57;100.00;92921.66;5071881;28;20170;-77
2024/01/20 07:01:25;;;;;;;11.27;10.87;;;;;;;-1.58;100.00;92915.75;5057827;28;20229;-74
2024/01/20 07:03:51;;;;;;;11.77;11.17;;;;;;;-1.45;100.00;92937.97;5063091;28;20189;-74
2024/01/20 07:06:16;;;;;;;11.07;10.57;;;;;;;-1.48;100.00;92938.38;5059442;28;20182;-75
2024/01/20 07:08:42;;;;;;;12.13;11.33;;;;;;;-1.18;100.00;92947.97;5070147;28;20211;-76
2024/01/20 07:11:11;;;;;;;11.37;10.67;;;;;;;-1.39;100.00;92961.03;5068999;28;20212;-75
2024/01/20 07:13:37;;;;;;;11.70;11.10;;;;;;;-0.88;100.00;92954.22;5059784;28;20209;-75
2024/01/20 07:16:14;;;;;;;11.63;11.03;;;;;;;-1.31;100.00;92953.13;5069991;28;20204;-73
2024/01/20 07:18:40;;;;;;;11.53;10.93;;;;;;;-1.38;100.00;92956.66;5068894;28;20228;-75
2024/01/20 07:21:06;;;;;;;11.23;10.57;;;;;;;-1.46;100.00;92964.56;5057915;28;20244;-75
2024/01/20 07:23:31;;;;;;;10.97;10.53;;;;;;;-1.51;100.00;92951.56;5052789;28;20233;-76
2024/01/20 07:25:58;;;;;;;11.50;10.90;;;;;;;-1.46;100.00;92972.25;5051891;28;20181;-75
2024/01/20 07:28:24;;;;;;;11.03;10.43;;;;;;;-1.66;100.00;92962.78;5050851;28;20269;-76
2024/01/20 07:30:49;;;;;;;11.50;10.80;;;;;;;-1.41;100.00;92975.78;5050027;28;20205;-75
2024/01/20 07:33:15;;;;;;;10.30;9.80;;;;;;;-1.43;100.00;92984.66;5049002;28;20833;-75
2024/01/20 07:35:40;;;;;;;10.63;10.13;;;;;;;-1.65;100.00;92972.03;5047917;28;20190;-75
2024/01/20 07:38:05;;;;;;;11.70;11.10;;;;;;;-1.49;100.00;92975.97;5062027;28;20221;-77
2024/01/20 07:40:31;;;;;;;11.77;11.10;;;;;;;-1.32;100.00;93002.00;5068351;28;20223;-77
2024/01/20 07:42:56;;;;;;;10.93;10.23;;;;;;;-1.22;100.00;93002.38;5068584;28;20218;-75
2024/01/20 07:45:22;;;;;;;12.40;11.70;;;;;;;-1.43;100.00;92997.47;5066834;28;20251;-78
2024/01/20 07:47:48;;;;;;;10.90;10.40;;;;;;;-1.61;100.00;92980.13;5048894;28;20229;-81
2024/01/20 07:50:13;;;;;;;13.63;12.53;;;;;;;-1.33;100.00;93005.50;5065307;28;20189;-78
2024/01/20 07:52:38;;;;;;;13.83;12.90;;;;;;;-1.33;100.00;92985.81;5069518;28;20233;-76
2024/01/20 07:55:04;;;;;;;10.77;10.20;;;;;;;-1.29;100.00;92987.00;5064357;28;20216;-77
2024/01/20 07:57:30;;;;;;;10.30;9.80;;;;;;;-1.02;99.30;93009.03;5061350;28;20289;-76
2024/01/20 07:59:55;;;;;;;10.10;9.57;;;;;;;-1.59;98.58;92969.69;5066065;28;20194;-79
2024/01/20 08:02:21;;;;;;;10.83;10.13;;;;;;;-1.01;100.00;93022.66;5052113;28;20292;-80
2024/01/20 08:04:46;;;;;;;11.13;10.43;;;;;;;-1.39;100.00;93011.44;5047479;28;20182;-77
2024/01/20 08:07:11;;;;;;;13.10;11.93;;;;;;;-1.50;100.00;93009.44;5042919;28;20225;-80
2024/01/20 08:09:37;;;;;;;12.53;11.47;;;;;;;-1.07;100.00;93037.03;5037422;28;20233;-77
2024/01/20 08:12:03;;;;;;;12.63;10.37;;;;;;;-1.06;100.00;93048.84;5037204;28;20218;-84
2024/01/20 08:14:28;;;;;;;11.83;11.17;;;;;;;-1.02;100.00;93049.25;5042144;28;20204;-78
2024/01/20 08:16:53;;;;;;;13.60;12.40;;;;;;;-0.37;100.00;93051.69;5038098;28;20287;-75
2024/01/20 08:19:19;;;;;;;11.73;10.93;;;;;;;-0.88;99.07;93045.69;5043613;28;20198;-75
2024/01/20 08:21:44;;;;;;;13.07;12.17;;;;;;;-1.02;98.16;93041.56;5047450;28;20226;-75
2024/01/20 08:24:09;;;;;;;11.27;10.57;;;;;;;-1.04;97.87;93043.53;5044071;28;20178;-74
2024/01/20 08:26:35;;;;;;;10.97;10.37;;;;;;;-0.82;97.80;93045.69;5041403;28;20233;-75
2024/01/20 08:29:01;;;;;;;12.50;11.73;;;;;;;-1.34;97.33;93065.41;5047195;28;20210;-75
2024/01/20 08:31:27;;;;;;;12.93;12.07;;;;;;;-1.25;98.57;93053.97;5036753;28;20194;-75
2024/01/20 08:33:53;;;;;;;13.53;12.57;;;;;;;-1.09;98.91;93064.59;5045777;28;20237;-75
2024/01/20 08:36:18;;;;;;;11.60;11.00;;;;;;;-1.11;97.18;93070.91;5047711;28;20182;-75
2024/01/20 08:38:44;;;;;;;11.00;10.40;;;;;;;-1.24;96.69;93087.06;5048495;28;20190;-75
2024/01/20 08:41:10;;;;;;;11.30;10.60;;;;;;;-1.16;97.01;93075.84;5036776;28;20186;-75
2024/01/20 08:43:42;;;;;;;11.50;10.90;;;;;;;0.27;100.00;93065.25;5056079;28;20229;-76
2024/01/20 08:46:08;;;;;;;12.03;11.40;;;;;;;-0.56;96.39;93078.19;5064683;28;20181;-72
2024/01/20 08:48:33;;;;;;;14.77;13.77;;;;;;;-1.18;96.12;93080.41;5068787;28;20236;-73
2024/01/20 08:50:59;;;;;;;14.73;13.57;;;;;;;-1.05;96.81;93067.56;5068208;28;20348;-75
2024/01/20 08:53:26;;;;;;;12.53;11.57;;;;;;;-0.52;95.46;93082.72;5068710;28;20315;-77
2024/01/20 08:55:52;;;;;;;11.87;10.97;;;;;;;-0.98;96.34;93091.44;5065403;28;20216;-75
2024/01/20 08:58:17;;;;;;;12.80;12.10;;;;;;;-1.06;96.90;93094.94;5067441;28;20225;-75
2024/01/20 09:00:42;;;;;;;13.13;12.33;;;;;;;-1.10;96.93;93088.66;5057882;28;20252;-74
2024/01/20 09:03:08;;;;;;;14.67;13.63;;;;;;;-1.19;97.18;93100.09;5068402;28;20233;-75
2024/01/20 09:05:33;;;;;;;15.63;14.23;;;;;;;-1.05;96.95;93076.06;5069108;28;20186;-74
2024/01/20 09:07:58;;;;;;;16.47;15.07;;;;;;;-1.02;96.92;93100.47;5067540;28;20251;-79
2024/01/20 09:10:24;;;;;;;17.13;15.57;;;;;;;-1.08;97.14;93101.25;5068335;28;20201;-75
2024/01/20 09:12:49;;;;;;;12.57;11.70;;;;;;;-0.88;97.57;93081.56;5067429;28;20247;-76
2024/01/20 09:15:14;;;;;;;13.37;12.60;;;;;;;-0.61;94.36;93113.88;5067784;28;20185;-77
2024/01/20 09:17:40;;;;;;;12.37;11.53;;;;;;;-0.68;94.22;93100.25;5067896;28;20236;-77
2024/01/20 09:20:06;;;;;;;13.23;12.33;;;;;;;-0.57;93.50;93112.47;5067037;28;20193;-77
2024/01/20 09:22:32;;;;;;;12.83;11.93;;;;;;;-0.94;93.82;93113.09;5066161;28;20237;-78
2024/01/20 09:24:58;;;;;;;13.03;12.13;;;;;;;-0.89;94.03;93121.00;5066947;28;20219;-77
2024/01/20 09:27:24;;;;;;;14.07;13.07;;;;;;;-1.01;94.30;93122.56;5067805;28;20221;-78
2024/01/20 09:29:49;;;;;;;14.10;13.20;;;;;;;-1.08;94.76;93116.63;5057578;28;20280;-78
2024/01/20 09:32:15;;;;;;;12.93;12.23;;;;;;;-1.11;94.99;93114.47;5061748;28;20298;-76
2024/01/20 09:34:40;;;;;;;14.00;12.93;;;;;;;-0.84;94.53;93113.50;5043620;28;20221;-77
2024/01/20 09:37:05;;;;;;;12.57;11.83;;;;;;;-1.15;93.63;93105.63;5063909;28;20352;-81
2024/01/20 09:39:31;;;;;;;13.27;12.37;;;;;;;-0.81;93.54;93124.13;5064522;28;20197;-75
2024/01/20 09:41:58;;;;;;;13.03;12.33;;;;;;;-0.96;92.08;93125.31;5064050;28;20229;-77
2024/01/20 09:44:23;;;;;;;12.47;11.67;;;;;;;-0.84;92.95;93104.03;5059034;28;20211;-77
2024/01/20 09:46:49;;;;;;;13.80;12.83;;;;;;;-0.73;92.87;93130.84;5061657;28;20218;-78
2024/01/20 09:49:16;;;;;;;12.43;11.43;;;;;;;-1.26;92.23;93063.41;5058762;28;20711;-78
2024/01/20 09:51:50;;;;;;;15.60;14.23;;;;;;;-0.62;92.42;93122.53;5067288;28;20730;-75
2024/01/20 09:54:21;;;;;;;15.73;14.63;;;;;;;-1.00;91.93;93101.06;5059613;28;20172;-77
2024/01/20 09:56:46;;;;;;;13.77;12.77;;;;;;;-0.62;91.82;93119.97;5063295;28;20222;-77
2024/01/20 09:59:14;;;;;;;14.03;13.03;;;;;;;-0.44;92.12;93109.91;5068223;28;20196;-77
2024/01/20 10:01:41;;;;;;;22.03;17.33;;;;;;;-0.41;91.17;93122.34;5070387;28;20255;-77
2024/01/20 10:04:08;;;;;;;17.97;16.33;;;;;;;-0.82;92.41;93111.50;5068687;28;20216;-79
2024/01/20 10:06:33;;;;;;;20.57;18.13;;;;;;;-0.90;92.85;93093.81;5062709;28;21026;-79
2024/01/20 10:08:59;;;;;;;23.07;18.83;;;;;;;-0.86;94.42;93120.59;5068366;28;20323;-83
2024/01/20 10:11:25;;;;;;;20.37;17.03;;;;;;;-0.71;94.57;93108.34;5056052;28;20190;-78
2024/01/20 10:13:51;;;;;;;17.80;16.07;;;;;;;-0.75;93.36;93092.59;5068192;28;20189;-81
2024/01/20 10:16:17;;;;;;;17.17;15.70;;;;;;;-0.85;93.08;93112.69;5064056;28;20212;-78
2024/01/20 10:18:43;;;;;;;16.00;14.67;;;;;;;-0.77;92.42;93109.16;5067288;28;20190;-77
2024/01/20 10:21:08;;;;;;;15.90;14.70;;;;;;;-1.06;92.83;93110.31;5065213;28;20220;-78
2024/01/20 10:23:35;;;;;;;15.60;14.27;;;;;;;-1.23;93.72;93093.75;5064897;28;20284;-80
2024/01/20 10:26:05;;;;;;;17.20;15.57;;;;;;;-0.81;93.74;93107.97;5066824;28;20178;-83
2024/01/20 10:28:32;;;;;;;15.43;14.23;;;;;;;-1.25;92.01;93085.50;5062795;28;20225;-78
2024/01/20 10:30:58;;;;;;;15.03;13.90;;;;;;;-1.16;94.11;93083.53;5063616;28;20250;-76
2024/01/20 10:33:24;;;;;;;14.90;13.80;;;;;;;-1.09;93.81;93105.59;5064555;28;20233;-80
2024/01/20 10:35:51;;;;;;;13.67;12.67;;;;;;;-1.39;92.88;93094.16;5066995;28;20223;-75
2024/01/20 10:38:21;;;;;;;16.00;14.70;;;;;;;-1.28;93.54;93092.78;5066256;28;20225;-78
2024/01/20 10:40:51;;;;;;;14.13;13.07;;;;;;;-1.70;93.82;93040.91;5067449;28;20184;-80
2024/01/20 10:43:17;;;;;;;16.50;14.80;;;;;;;-1.05;94.18;93101.66;5067477;28;20229;-76
2024/01/20 10:45:52;;;;;;;18.17;16.63;;;;;;;-1.03;93.88;93114.28;5064880;28;20218;-72
2024/01/20 10:48:21;;;;;;;18.50;16.83;;;;;;;-0.93;94.80;93119.78;5061917;28;20235;-75
2024/01/20 10:50:56;;;;;;;15.20;14.00;;;;;;;-1.14;94.38;93107.19;5069611;28;20185;-76
2024/01/20 10:53:23;;;;;;;16.20;14.47;;;;;;;-0.97;94.00;93114.28;5058296;28;20268;-80
2024/01/20 10:55:50;;;;;;;16.47;15.03;;;;;;;-1.15;94.47;93105.63;5033251;28;20186;-81
2024/01/20 10:58:19;;;;;;;19.70;18.00;;;;;;;-1.22;95.32;93107.38;5050734;28;20279;-76
2024/01/20 11:00:45;;;;;;;16.20;14.93;;;;;;;-1.23;94.65;93087.88;5051742;28;20623;-76
2024/01/20 11:03:11;;;;;;;16.90;15.40;;;;;;;-1.10;94.12;93098.91;5036118;28;20226;-79
2024/01/20 11:05:36;;;;;;;17.20;15.40;;;;;;;-1.23;95.12;93108.34;5032631;28;20195;-77
2024/01/20 11:08:06;;;;;;;18.33;15.53;;;;;;;-0.90;94.98;93107.38;5046497;28;20268;-78
2024/01/20 11:10:43;;;;;;;17.20;15.40;;;;;;;-1.04;95.28;93110.16;5043983;28;20205;-80
2024/01/20 11:13:11;;;;;;;17.90;16.30;;;;;;;-1.02;95.88;93100.47;5042437;28;20256;-77